• Join FlightAware (Why Join?)
  • Login
  • US Flag 
08:11PM EST


 

Airport Tracker/Info


-or-


 

Live Flight TrackerFlight Track Log ✈ DAL268 ✈ 17-Oct-2013 ✈ KJFK - LLBG / TLV

Flight Track Log - Related Links

Times and Time Zones

All times are in EDT time to prevent confusion due to time zone crossing. See the DAL268 flight status page for this flight to view local times or setup timezone preferences in your user account.

Time Position Orientation Groundspeed Altitude Reporting Facility
EDT Latitude Longitude Course Direction KTS MPH feet Rate Location/Type
09:46PM 40.6420 -73.7750 180° South 105 121  Level FlightAware
09:46PM 40.6310 -73.7830 209° Southwest 165 190 1,256 Level FlightAware
09:46PM 40.6160 -73.7950 211° Southwest 173 199 900 2,348 Climbing FlightAware
09:47PM 40.5990 -73.8090 212° Southwest 173 199 1,800 1,500 Climbing FlightAware
09:47PM 40.5800 -73.8230 209° Southwest 208 239 2,100 1,029 Climbing FlightAware
09:47PM 40.5700 -73.8250 189° South 216 249 2,400 1,091 Climbing FlightAware
09:48PM 40.5470 -73.8190 169° South 239 275 2,700 774 Climbing FlightAware
09:48PM 40.5390 -73.8120 146° Southeast 251 289 2,800 1,000 Climbing FlightAware
09:48PM 40.5360 -73.8080 135° Southeast 255 293 2,900 1,000 Climbing FlightAware
09:48PM 40.5290 -73.7970 130° Southeast 266 306 3,000 1,200 Climbing FlightAware
09:48PM 40.5250 -73.7870 118° Southeast 272 313 3,200 1,500 Climbing FlightAware
09:48PM 40.5210 -73.7740 112° Southeast 281 323 3,400 1,143 Climbing FlightAware
09:49PM 40.5190 -73.7520 97° East 298 343 3,600 1,313 Climbing FlightAware
09:49PM 40.5250 -73.7170 77° East 312 359 4,100 1,688 Climbing FlightAware
09:49PM 40.5320 -73.6960 66° East 315 362 4,500 2,182 Climbing FlightAware
09:49PM 40.5380 -73.6770 67° East 318 366 4,900 2,182 Climbing FlightAware
09:50PM 40.5430 -73.6330 81° East 318 366 5,700 2,229 Climbing FlightAware
09:50PM 40.5430 -73.6110 90° East 315 362 6,200 2,182 Climbing FlightAware
09:50PM 40.5410 -73.5700 94° East 320 368 6,900 1,818 Climbing FlightAware
09:50PM 40.5400 -73.5460 93° East 328 377 7,200 1,886 Climbing FlightAware
09:51PM 40.5420 -73.5020 87° East 334 384 8,000 2,045 Climbing FlightAware
09:51PM 40.5440 -73.4570 87° East 340 391 8,700 1,833 Climbing FlightAware
09:51PM 40.5460 -73.4270 85° East 345 397 9,100 1,660 Climbing FlightAware
09:52PM 40.5470 -73.3600 89° East 355 409 10,000 1,565 Climbing FlightAware
09:53PM 40.5500 -73.2800 87° East 372 428 10,900 1,313 Climbing FlightAware
09:53PM 40.5528 -73.2102 87° East 394 453 11,400 1,184 Climbing FlightAware ADS-B (KSNC)
09:54PM 40.5560 -73.1141 87° East 423 487 12,400 1,143 Climbing FlightAware ADS-B (KSNC)
09:54PM 40.5631 -72.9979 85° East 452 520 13,000 1,600 Climbing FlightAware ADS-B (KSNC)
09:55PM 40.5900 -72.8917 72° East 459 528 14,400 2,057 Climbing FlightAware ADS-B (KSNC)
09:56PM 40.6076 -72.8158 73° East 464 534 15,400 1,524 Climbing FlightAware ADS-B (KSNC)
09:56PM 40.6231 -72.7238 77° East 484 557 16,000 1,562 Climbing FlightAware ADS-B (KSNC)
09:57PM 40.6359 -72.6055 82° East 489 563 17,300 1,703 Climbing FlightAware ADS-B (KSNC)
09:57PM 40.6473 -72.5000 82° East 500 575 18,100 1,521 Climbing FlightAware ADS-B (KSNC)
09:58PM 40.6596 -72.3862 82° East 509 586 19,100 1,518 Climbing FlightAware ADS-B (KSNC)
09:59PM 40.6740 -72.2550 82° East 518 596 20,200 1,500 Climbing FlightAware
09:59PM 40.6740 -72.2541 90° East 522 601 20,600 1,500 Climbing FlightAware ADS-B (KSNC)
10:00PM 40.7020 -71.9920 82° East 533 613 22,200 1,412 Climbing FlightAware
10:01PM 40.7140 -71.8730 82° East 540 621 23,000 1,214 Climbing FlightAware
10:01PM 40.7300 -71.7150 82° East 550 633 23,900 1,161 Climbing FlightAware
10:02PM 40.7164 -71.8495 262° West 554 638 24,200 1,114 Climbing FlightAware ADS-B
10:03PM 40.7530 -71.4810 82° East 563 648 25,200 1,043 Climbing FlightAware
10:03PM 40.7660 -71.3570 82° East 571 657 25,800 1,059 Climbing FlightAware
10:04PM 40.7760 -71.2510 83° East 577 664 26,400 1,059 Climbing FlightAware
10:04PM 40.7880 -71.1210 83° East 581 669 27,000 1,059 Climbing FlightAware
10:05PM 40.7990 -71.0050 83° East 585 673 27,600 1,043 Climbing FlightAware
10:06PM 40.8110 -70.8740 83° East 590 679 28,200 1,135 Climbing FlightAware
10:06PM 40.8230 -70.7500 83° East 586 674 29,000 1,333 Climbing FlightAware
10:07PM 40.8340 -70.6240 83° East 583 671 29,800 1,292 Climbing FlightAware
10:07PM 40.8450 -70.5140 82° East 583 671 30,400 627 Climbing FlightAware
10:08PM 40.8550 -70.4010 83° East 583 671 30,500 82 Climbing FlightAware
10:08PM 40.8650 -70.2930 83° East 583 671 30,500  Level FlightAware
10:09PM 40.8750 -70.1850 83° East 583 671 30,500  Level FlightAware
10:10PM 40.8850 -70.0730 83° East 583 671 30,500  Level FlightAware
10:10PM 40.8950 -69.9650 83° East 583 671 30,500  Level FlightAware
10:11PM 40.9050 -69.8570 83° East 583 671 30,500  Level FlightAware
10:11PM 40.9160 -69.7450 83° East 583 671 30,500  Level FlightAware
10:12PM 40.9260 -69.6310 83° East 583 671 30,500  Level FlightAware
10:13PM 40.9360 -69.5220 83° East 583 671 30,500  Level FlightAware
10:13PM 40.9460 -69.4140 83° East 583 671 30,500  Level FlightAware
10:14PM 40.9570 -69.3050 82° East 583 671 30,500  Level FlightAware
10:15PM 40.9670 -69.1970 83° East 583 671 30,500  Level FlightAware
10:15PM 40.9770 -69.0890 83° East 583 671 30,500  Level FlightAware
10:16PM 40.9870 -68.9800 83° East 583 671 30,500  Level FlightAware
10:16PM 40.9970 -68.8680 83° East 583 671 30,500  Level FlightAware
10:17PM 41.0070 -68.7600 83° East 583 671 30,500 395 Level FlightAware
10:18PM 41.0258 -68.3192 83° East 577 664 31,000 300 Climbing New York Center
10:19PM 41.0422 -68.1042 84° East 577 664 31,000  Level New York Center
10:20PM 41.0542 -67.8947 86° East 577 664 31,000  Level New York Center
10:21PM 41.0736 -67.6736 83° East 577 664 31,000  Level New York Center
10:23PM 41.1167 -67.0000 78° East 581 669 31,000  Level New York Oceanic (ODAPS)
10:26PM 41.2004 -66.4203 83° East 586 674 31,000  Level FlightAware ADS-B
10:27PM 41.2183 -66.3005 79° East 586 674 31,000  Level FlightAware ADS-B
10:28PM 41.2387 -66.1632 79° East 586 674 31,000  Level FlightAware ADS-B
10:28PM 41.2553 -66.0519 79° East 585 673 31,000  Level FlightAware ADS-B
10:29PM 41.2771 -65.9033 78° East 586 674 31,000  Level FlightAware ADS-B
10:29PM 41.2964 -65.7723 79° East 587 676 31,000  Level FlightAware ADS-B
10:31PM 41.3003 -65.7457 79° East 586 674 31,000  Level FlightAware ADS-B
10:33PM 41.3482 -65.4162 79° East  Level FlightAware Approximate
10:34PM 41.3762 -65.2202 79° East  Level FlightAware Approximate
10:34PM 41.4268 -64.8577 79° East 584 672 31,000  Level FlightAware ADS-B
10:36PM 41.4749 -64.5072 80° East  Level FlightAware Approximate
10:36PM 41.4831 -64.4442 80° East 583 671 31,000  Level FlightAware ADS-B
10:38PM 41.5313 -64.0833 80° East  Level FlightAware Approximate
10:39PM 41.5571 -63.8862 80° East  Level FlightAware Approximate
10:40PM 41.5826 -63.6890 80° East  Level FlightAware Approximate
10:41PM 41.6077 -63.4916 80° East  Level FlightAware Approximate
10:41PM 41.6226 -63.3704 80° East 583 671 31,000  Level FlightAware ADS-B
10:58PM 42.0000 -60.0000 71° East 582 670 31,000 30 Level New York Oceanic (ODAPS)
11:47PM 44.0000 -50.0000 87° East 564 649 33,000 21 Climbing New York Oceanic (ODAPS)
12:34AM 44.0000 -40.0000 94° East 572 658 33,000  Level ETMS Enhanced Traffic Management System
12:35AM 43.9492 -39.1375 95° East 564 649 33,000  Level FlightAware Transoceanic
12:36AM 43.9354 -38.9221 95° East 564 649 33,000  Level FlightAware Transoceanic
12:37AM 43.9213 -38.7068 95° East 564 649 33,000  Level FlightAware Transoceanic
12:38AM 43.9068 -38.4916 95° East 564 649 33,000  Level FlightAware Transoceanic
12:39AM 43.8918 -38.2765 96° East 564 649 33,000  Level FlightAware Transoceanic
12:40AM 43.8892 -38.2392 96° East 572 658 33,000  Level FlightAware Transoceanic
12:41AM 43.8735 -38.0195 96° East 572 658 33,000  Level FlightAware Transoceanic
12:42AM 43.8573 -37.8000 96° East 572 658 33,000  Level FlightAware Transoceanic
12:43AM 43.8407 -37.5806 96° East 572 658 33,000  Level FlightAware Transoceanic
12:44AM 43.8237 -37.3614 96° East 572 658 33,000  Level FlightAware Transoceanic
12:45AM 43.8063 -37.1422 96° East 572 658 33,000  Level FlightAware Transoceanic
12:46AM 43.7884 -36.9232 97° East 572 658 33,000  Level FlightAware Transoceanic
12:47AM 43.7702 -36.7044 97° East 572 658 33,000  Level FlightAware Transoceanic
12:48AM 43.7515 -36.4856 97° East 572 658 33,000  Level FlightAware Transoceanic
12:49AM 43.7324 -36.2670 97° East 572 658 33,000  Level FlightAware Transoceanic
12:50AM 43.7129 -36.0486 97° East 572 658 33,000  Level FlightAware Transoceanic
12:51AM 43.6929 -35.8302 97° East 572 658 33,000  Level FlightAware Transoceanic
12:52AM 43.6726 -35.6121 97° East 572 658 33,000  Level FlightAware Transoceanic
12:53AM 43.6518 -35.3941 98° East 572 658 33,000  Level FlightAware Transoceanic
12:54AM 43.6307 -35.1762 98° East 572 658 33,000  Level FlightAware Transoceanic
12:55AM 43.6091 -34.9585 98° East 572 658 33,000  Level FlightAware Transoceanic
12:56AM 43.5871 -34.7409 98° East 572 658 33,000  Level FlightAware Transoceanic
12:57AM 43.5647 -34.5235 98° East 572 658 33,000  Level FlightAware Transoceanic
12:58AM 43.5418 -34.3063 98° East 572 658 33,000  Level FlightAware Transoceanic
12:59AM 43.5186 -34.0892 98° East 572 658 33,000  Level FlightAware Transoceanic
01:00AM 43.4950 -33.8723 99° East 572 658 33,000  Level FlightAware Transoceanic
01:01AM 43.4709 -33.6556 99° East 572 658 33,000  Level FlightAware Transoceanic
01:02AM 43.4464 -33.4391 99° East 572 658 33,000  Level FlightAware Transoceanic
01:03AM 43.4216 -33.2227 99° East 572 658 33,000  Level FlightAware Transoceanic
01:04AM 43.3963 -33.0065 99° East 572 658 33,000  Level FlightAware Transoceanic
01:05AM 43.3706 -32.7905 99° East 572 658 33,000  Level FlightAware Transoceanic
01:06AM 43.3445 -32.5747 100° East 572 658 33,000  Level FlightAware Transoceanic
01:07AM 43.3180 -32.3590 100° East 572 658 33,000  Level FlightAware Transoceanic
01:08AM 43.2911 -32.1436 100° East 572 658 33,000  Level FlightAware Transoceanic
01:09AM 43.2638 -31.9283 100° East 572 658 33,000  Level FlightAware Transoceanic
01:10AM 43.2361 -31.7132 100° East 572 658 33,000  Level FlightAware Transoceanic
01:11AM 43.2080 -31.4984 100° East 572 658 33,000  Level FlightAware Transoceanic
01:12AM 43.1795 -31.2837 100° East 572 658 33,000  Level FlightAware Transoceanic
01:13AM 43.1506 -31.0692 101° East 572 658 33,000  Level FlightAware Transoceanic
01:14AM 43.1213 -30.8550 101° East 572 658 33,000  Level FlightAware Transoceanic
01:15AM 43.0915 -30.6409 101° East 572 658 33,000  Level FlightAware Transoceanic
01:16AM 43.0614 -30.4271 101° East 572 658 33,000  Level FlightAware Transoceanic
01:17AM 43.0309 -30.2134 101° East 572 658 33,000 24 Level FlightAware Transoceanic
01:18AM 43.0019 -30.0127 101° East  Level FlightAware Approximate
01:19AM 42.9725 -29.8122 101° East  Level FlightAware Approximate
01:20AM 42.9900 -29.8219 94° East  Level FlightAware Approximate
01:21AM 42.9782 -29.6180 94° East  Level FlightAware Approximate
01:22AM 42.9662 -29.4163 95° East  Level FlightAware Approximate
01:23AM 42.9539 -29.2147 95° East  Level FlightAware Approximate
01:24AM 42.9412 -29.0132 95° East  Level FlightAware Approximate
01:25AM 42.9281 -28.8118 95° East  Level FlightAware Approximate
01:26AM 42.9147 -28.6104 95° East  Level FlightAware Approximate
01:27AM 42.9009 -28.4091 95° East  Level FlightAware Approximate
01:28AM 42.8868 -28.2080 95° East  Level FlightAware Approximate
01:29AM 42.8723 -28.0069 96° East  Level FlightAware Approximate
01:30AM 42.8575 -27.8059 96° East  Level FlightAware Approximate
01:31AM 42.8423 -27.6051 96° East  Level FlightAware Approximate
01:32AM 42.8268 -27.4043 96° East  Level FlightAware Approximate
01:33AM 42.8109 -27.2036 96° East  Level FlightAware Approximate
01:34AM 42.7947 -27.0030 96° East  Level FlightAware Approximate
01:35AM 42.7781 -26.8026 96° East  Level FlightAware Approximate
01:36AM 42.7611 -26.6022 96° East  Level FlightAware Approximate
01:37AM 42.7439 -26.4020 97° East  Level FlightAware Approximate
01:38AM 42.7262 -26.2018 97° East  Level FlightAware Approximate
01:39AM 42.7082 -26.0018 97° East  Level FlightAware Approximate
01:40AM 42.6899 -25.8019 97° East  Level FlightAware Approximate
01:41AM 42.6713 -25.6021 97° East  Level FlightAware Approximate
01:42AM 42.6522 -25.4025 97° East  Level FlightAware Approximate
01:43AM 42.6329 -25.2029 97° East  Level FlightAware Approximate
01:44AM 42.6132 -25.0035 98° East  Level FlightAware Approximate
01:45AM 42.5931 -24.8042 98° East  Level FlightAware Approximate
01:46AM 42.5727 -24.6051 98° East  Level FlightAware Approximate
01:47AM 42.5520 -24.4060 98° East  Level FlightAware Approximate
01:48AM 42.5309 -24.2071 98° East  Level FlightAware Approximate
01:49AM 42.5094 -24.0084 98° East  Level FlightAware Approximate
01:50AM 42.4877 -23.8098 98° East  Level FlightAware Approximate
01:51AM 42.4655 -23.6113 99° East  Level FlightAware Approximate
01:52AM 42.4431 -23.4129 99° East  Level FlightAware Approximate
01:53AM 42.4203 -23.2147 99° East  Level FlightAware Approximate
01:54AM 42.3971 -23.0167 99° East  Level FlightAware Approximate
01:55AM 42.3736 -22.8188 99° East  Level FlightAware Approximate
01:56AM 42.3498 -22.6210 99° East  Level FlightAware Approximate
01:57AM 42.3256 -22.4234 99° East  Level FlightAware Approximate
01:58AM 42.3012 -22.2260 99° East  Level FlightAware Approximate
01:59AM 42.2763 -22.0287 100° East  Level FlightAware Approximate
02:00AM 42.2511 -21.8316 100° East  Level FlightAware Approximate
02:01AM 42.2256 -21.6346 100° East  Level FlightAware Approximate
02:02AM 42.1998 -21.4377 100° East  Level FlightAware Approximate
02:03AM 42.1736 -21.2411 100° East  Level FlightAware Approximate
02:04AM 42.1470 -21.0446 100° East  Level FlightAware Approximate
02:05AM 42.1202 -20.8483 100° East  Level FlightAware Approximate
02:06AM 42.0930 -20.6521 101° East  Level FlightAware Approximate
02:07AM 42.0654 -20.4561 101° East  Level FlightAware Approximate
02:08AM 42.0376 -20.2603 101° East  Level FlightAware Approximate
02:09AM 42.0094 -20.0646 101° East  Level FlightAware Approximate
02:10AM 42.0145 -19.8680 82° East  Level FlightAware Approximate
02:11AM 42.0358 -19.6708 82° East  Level FlightAware Approximate
02:12AM 42.0568 -19.4735 82° East  Level FlightAware Approximate
02:13AM 42.0774 -19.2760 82° East  Level FlightAware Approximate
02:14AM 42.0977 -19.0784 82° East  Level FlightAware Approximate
02:15AM 42.1177 -18.8806 82° East  Level FlightAware Approximate
02:16AM 42.1373 -18.6828 82° East  Level FlightAware Approximate
02:17AM 42.1566 -18.4848 82° East  Level FlightAware Approximate
02:18AM 42.1756 -18.2867 83° East  Level FlightAware Approximate
02:19AM 42.1942 -18.0885 83° East  Level FlightAware Approximate
02:20AM 42.2124 -17.8901 83° East  Level FlightAware Approximate
02:21AM 42.2304 -17.6917 83° East  Level FlightAware Approximate
02:22AM 42.2480 -17.4931 83° East  Level FlightAware Approximate
02:23AM 42.2652 -17.2945 83° East  Level FlightAware Approximate
02:24AM 42.2821 -17.0957 83° East  Level FlightAware Approximate
02:25AM 42.2986 -16.8968 84° East  Level FlightAware Approximate
02:26AM 42.3149 -16.6978 84° East  Level FlightAware Approximate
02:27AM 42.3307 -16.4987 84° East  Level FlightAware Approximate
02:28AM 42.3462 -16.2995 84° East  Level FlightAware Approximate
02:29AM 42.3614 -16.1002 84° East  Level FlightAware Approximate
02:30AM 42.3763 -15.9009 84° East  Level FlightAware Approximate
02:31AM 42.3907 -15.7014 84° East  Level FlightAware Approximate
02:32AM 42.4049 -15.5018 84° East  Level FlightAware Approximate
02:33AM 42.4187 -15.3022 85° East  Level FlightAware Approximate
02:34AM 42.4321 -15.1024 85° East  Level FlightAware Approximate
02:35AM 42.4452 -14.9026 85° East  Level FlightAware Approximate
02:36AM 42.4580 -14.7027 85° East  Level FlightAware Approximate
02:37AM 42.4704 -14.5027 85° East  Level FlightAware Approximate
02:38AM 42.4824 -14.3026 85° East  Level FlightAware Approximate
02:39AM 42.4941 -14.1025 85° East  Level FlightAware Approximate
02:40AM 42.4942 -13.9023 95° East  Level FlightAware Approximate
02:41AM 42.4821 -13.7019 95° East  Level FlightAware Approximate
02:42AM 42.4696 -13.5015 95° East  Level FlightAware Approximate
02:43AM 42.4568 -13.3012 95° East  Level FlightAware Approximate
02:44AM 42.4436 -13.1010 95° East  Level FlightAware Approximate
02:45AM 42.4301 -12.9009 95° East  Level FlightAware Approximate
02:46AM 42.4162 -12.7008 95° East  Level FlightAware Approximate
02:46AM 42.3910 -12.2570 96° East 519 597 35,200  Level FlightAware
02:47AM 42.3760 -12.0820 97° East 520 598 36,000 545 Climbing FlightAware
02:48AM 42.3670 -11.9620 96° East 520 598 36,000  Level FlightAware
02:48AM 42.3560 -11.8390 97° East 513 590 36,000  Level FlightAware
02:49AM 42.3470 -11.7290 96° East 510 587 36,000  Level FlightAware
02:49AM 42.3380 -11.6090 96° East 508 585 36,000  Level FlightAware
02:50AM 42.3280 -11.4900 96° East 507 583 36,000  Level FlightAware
02:51AM 42.3200 -11.3800 96° East 507 583 36,000  Level FlightAware
02:51AM 42.3110 -11.2710 96° East 508 585 36,000  Level FlightAware
02:52AM 42.3030 -11.1580 95° East 509 586 36,000  Level FlightAware
02:52AM 42.2950 -11.0530 96° East 510 587 36,000  Level FlightAware
02:53AM 42.2850 -10.9360 97° East 512 589 36,000  Level FlightAware
02:54AM 42.2820 -10.8050 92° East 519 597 36,000  Level FlightAware
02:54AM 42.2970 -10.7570 67° East 642 739 36,000  Level FlightAware
02:54AM 42.3270 -10.6500 69° East 535 616 36,000  Level FlightAware
02:55AM 42.3570 -10.5460 69° East 535 616 36,000  Level FlightAware
02:56AM 42.3920 -10.4250 69° East 535 616 36,000  Level FlightAware
02:56AM 42.4240 -10.3110 69° East 534 615 36,000  Level FlightAware
02:57AM 42.4550 -10.2010 69° East 534 615 36,000  Level FlightAware
02:57AM 42.4830 -10.0990 70° East 532 612 36,000  Level FlightAware
02:58AM 42.5050 -9.9870 75° East 526 605 36,000  Level FlightAware
02:59AM 42.5180 -9.8700 81° East 525 604 36,000  Level FlightAware
02:59AM 42.5320 -9.7470 81° East 526 605 36,000  Level FlightAware
03:00AM 42.5430 -9.6430 82° East 527 606 36,000  Level FlightAware
03:00AM 42.5550 -9.5230 82° East 527 606 36,000  Level FlightAware
03:01AM 42.5670 -9.4060 82° East 528 608 36,000  Level FlightAware
03:01AM 42.5770 -9.3040 82° East 528 608 36,000  Level FlightAware
03:02AM 42.5880 -9.1860 83° East 528 608 36,000  Level FlightAware
03:03AM 42.5201 -9.8534 262° West 526 605 36,000  Level FlightAware ADS-B (LECO / LCG)
03:03AM 42.6076 -8.9731 82° East 525 604 36,000  Level FlightAware ADS-B (LECO / LCG)
03:04AM 42.6179 -8.8639 83° East 524 603 36,000  Level FlightAware ADS-B (LECO / LCG)
03:04AM 42.6310 -8.7240 83° East 521 600 36,000  Level FlightAware
03:05AM 42.6400 -8.6180 83° East 520 598 36,000  Level FlightAware
03:05AM 42.6493 -8.5187 83° East 520 598 36,000  Level FlightAware ADS-B (LECO / LCG)
03:06AM 42.6610 -8.3820 83° East 519 597 36,000  Level FlightAware
03:07AM 42.6710 -8.2680 83° East 520 598 36,000  Level FlightAware
03:07AM 42.6696 -8.2882 265° West 521 600 36,000  Level FlightAware ADS-B (LECO / LCG)
03:07AM 42.6831 -8.1314 83° East 520 598 36,000  Level FlightAware ADS-B (LECO / LCG)
03:08AM 42.6941 -8.0018 83° East 517 595 36,000  Level FlightAware ADS-B (LECO / LCG)
03:09AM 42.7024 -7.9035 83° East 517 595 36,000  Level FlightAware ADS-B (LECO / LCG)
03:09AM 42.7130 -7.7763 83° East 517 595 36,000  Level FlightAware ADS-B (LECO / LCG)
03:10AM 42.7215 -7.6756 83° East 517 595 36,000  Level FlightAware ADS-B (LECO / LCG)
03:10AM 42.7276 -7.6009 84° East 517 595 36,000  Level FlightAware ADS-B (LECO / LCG)
03:11AM 42.7374 -7.4843 83° East 518 596 36,000  Level FlightAware ADS-B (LECO / LCG)
03:11AM 42.7478 -7.3569 84° East 518 596 36,000  Level FlightAware ADS-B (LECO / LCG)
03:12AM 42.7556 -7.2592 84° East 519 597 36,000  Level FlightAware ADS-B (LECO / LCG)
03:13AM 42.7658 -7.1294 84° East 520 598 36,000  Level FlightAware ADS-B (LECO / LCG)
03:13AM 42.7734 -7.0295 84° East 519 597 36,000  Level FlightAware ADS-B (LECO / LCG)
03:14AM 42.7831 -6.9012 84° East 516 594 36,000  Level FlightAware ADS-B (LECO / LCG)
03:14AM 42.7901 -6.8041 84° East 516 594 36,000  Level FlightAware ADS-B (LECO / LCG)
03:15AM 42.7971 -6.7079 84° East 516 594 36,000  Level FlightAware ADS-B (LECO / LCG)
03:15AM 42.8038 -6.6101 85° East 517 595 36,000  Level FlightAware ADS-B (LECO / LCG)
03:16AM 42.8025 -6.4816 91° East 512 589 36,000  Level FlightAware ADS-B (LECO / LCG)
03:17AM 42.7900 -6.3130 96° East 511 588 36,000  Level FlightAware
03:17AM 42.7810 -6.2020 96° East 510 587 36,000  Level FlightAware
03:18AM 42.7720 -6.0880 96° East 510 587 36,000  Level FlightAware
03:19AM 42.7630 -5.9760 96° East 508 585 36,000  Level FlightAware
03:19AM 42.7550 -5.8720 96° East 508 585 36,000  Level FlightAware
03:20AM 42.7450 -5.7550 97° East 509 586 36,000  Level FlightAware
03:20AM 42.7370 -5.6480 96° East 509 586 36,000  Level FlightAware
03:21AM 42.7270 -5.5330 97° East 510 587 36,000  Level FlightAware
03:22AM 42.7170 -5.4230 97° East 510 587 36,000  Level FlightAware
03:22AM 42.7080 -5.3090 96° East 511 588 36,000  Level FlightAware
03:23AM 42.6970 -5.1880 97° East 511 588 36,000  Level FlightAware
03:23AM 42.6860 -5.0620 97° East 507 583 36,000  Level FlightAware
03:24AM 42.6750 -4.9440 97° East 506 582 36,000  Level FlightAware
03:25AM 42.6660 -4.8420 97° East 505 581 36,000  Level FlightAware
03:25AM 42.6550 -4.7260 97° East 506 582 36,000  Level FlightAware
03:26AM 42.6450 -4.6110 97° East 507 583 36,000  Level FlightAware
03:26AM 42.6360 -4.5090 97° East 508 585 36,000  Level FlightAware
03:27AM 42.6270 -4.3980 96° East 509 586 36,000  Level FlightAware
03:28AM 42.6160 -4.2800 97° East 510 587 36,000  Level FlightAware
03:28AM 42.6060 -4.1720 97° East 509 586 36,000  Level FlightAware
03:29AM 42.5960 -4.0690 97° East 509 586 36,000  Level FlightAware
03:29AM 42.5840 -3.9540 98° East 508 585 36,000  Level FlightAware
03:30AM 42.5730 -3.8430 98° East 510 587 36,000  Level FlightAware
03:30AM 42.5610 -3.7250 98° East 511 588 36,000  Level FlightAware
03:31AM 42.5510 -3.6290 98° East 510 587 36,000  Level FlightAware
03:32AM 42.5370 -3.5050 99° East 509 586 36,000  Level FlightAware
03:32AM 42.5250 -3.3970 99° East 508 585 36,000  Level FlightAware
03:33AM 42.5120 -3.2810 99° East 506 582 36,000  Level FlightAware
03:33AM 42.5010 -3.1800 98° East 504 580 36,000  Level FlightAware
03:34AM 42.4880 -3.0670 99° East 502 578 36,000  Level FlightAware
03:35AM 42.4760 -2.9570 98° East 500 575 36,000  Level FlightAware
03:35AM 42.4590 -2.8440 101° East 497 572 36,000  Level FlightAware
03:36AM 42.4410 -2.7530 105° East 494 568 36,000  Level FlightAware
03:36AM 42.4180 -2.6440 106° East 492 566 36,000  Level FlightAware
03:37AM 42.3950 -2.5350 106° East 490 564 36,000  Level FlightAware
03:37AM 42.3760 -2.4410 105° East 492 566 36,000  Level FlightAware
03:38AM 42.3540 -2.3380 106° East 496 571 36,000  Level FlightAware
03:39AM 42.3340 -2.2450 106° East 498 573 36,000  Level FlightAware
03:39AM 42.3100 -2.1330 106° East 498 573 36,000  Level FlightAware
03:40AM 42.2840 -2.0130 106° East 498 573 36,000  Level FlightAware
03:40AM 42.2650 -1.9250 106° East 496 571 36,000  Level FlightAware
03:41AM 42.2410 -1.8120 106° East 493 567 36,000  Level FlightAware
03:42AM 42.2190 -1.7140 107° East 494 568 36,000  Level FlightAware
03:42AM 42.1960 -1.6060 106° East 494 568 36,000  Level FlightAware
03:43AM 42.1750 -1.5120 107° East 493 567 36,000  Level FlightAware
03:43AM 42.1510 -1.4040 107° East 491 565 36,000  Level FlightAware
03:44AM 42.1270 -1.2950 107° East 491 565 36,000  Level FlightAware
03:44AM 42.1040 -1.1930 107° East 492 566 36,000  Level FlightAware
03:45AM 42.0830 -1.0970 106° East 492 566 36,000  Level FlightAware
03:46AM 42.0580 -0.9890 107° East 493 567 36,000  Level FlightAware
03:46AM 42.0340 -0.8850 107° East 494 568 36,000  Level FlightAware
03:47AM 42.0120 -0.7910 107° East 494 568 36,000  Level FlightAware
03:47AM 41.9870 -0.6830 107° East 495 570 36,000  Level FlightAware
03:48AM 41.9630 -0.5800 107° East 495 570 36,000  Level FlightAware
03:49AM 41.9390 -0.4760 107° East 495 570 36,000  Level FlightAware
03:49AM 41.9160 -0.3810 108° East 497 572 36,000  Level FlightAware
03:50AM 41.8890 -0.2650 107° East 498 573 36,000  Level FlightAware
03:50AM 41.8670 -0.1700 107° East 498 573 36,000  Level FlightAware
03:51AM 41.8440 -0.0730 108° East 499 574 36,000  Level FlightAware
03:51AM 41.8170 0.0390 108° East 498 573 36,000  Level FlightAware
03:52AM 41.7920 0.1420 108° East 498 573 36,000  Level FlightAware
03:53AM 41.7660 0.2510 108° East 497 572 36,000  Level FlightAware
03:53AM 41.7430 0.3450 108° East 497 572 36,000  Level FlightAware
03:54AM 41.7265 0.4162 107° East 497 572 36,000  Level FlightAware ADS-B
03:54AM 41.6992 0.5303 108° East 498 573 36,000  Level FlightAware ADS-B
03:55AM 41.6714 0.6463 108° East 498 573 36,000  Level FlightAware ADS-B
03:55AM 41.6493 0.7365 108° East 496 571 36,000  Level FlightAware ADS-B
03:56AM 41.6260 0.8244 110° East 497 572 36,000  Level FlightAware ADS-B
03:57AM 41.5955 0.9369 110° East 497 572 36,000  Level FlightAware ADS-B
03:57AM 41.5723 1.0236 110° East 497 572 36,000  Level FlightAware ADS-B
03:58AM 41.5409 1.1407 110° East 497 572 36,000  Level FlightAware ADS-B
03:58AM 41.5197 1.2275 108° East 499 574 36,000  Level FlightAware ADS-B
03:59AM 41.4993 1.3175 107° East 499 574 36,000  Level FlightAware ADS-B
03:59AM 41.4727 1.4319 107° East 499 574 36,000  Level FlightAware ADS-B
04:00AM 41.4518 1.5202 108° East 498 573 36,000  Level FlightAware ADS-B
04:00AM 41.4304 1.6095 108° East 499 574 36,000  Level FlightAware ADS-B
04:01AM 41.4085 1.6976 108° East 499 574 36,000  Level FlightAware ADS-B
04:02AM 41.3783 1.8123 109° East 498 573 36,000  Level FlightAware ADS-B
04:02AM 41.3550 1.9003 109° East 498 573 36,000  Level FlightAware ADS-B
04:03AM 41.3178 2.0404 109° East 499 574 36,000  Level FlightAware ADS-B
04:03AM 41.2973 2.1240 108° East 499 574 36,000  Level FlightAware ADS-B
04:04AM 41.2692 2.2816 103° East 500 575 36,000  Level FlightAware ADS-B
04:05AM 41.2530 2.3900 101° East 500 575 36,000  Level FlightAware
04:05AM 41.2360 2.5010 101° East 500 575 36,000  Level FlightAware
04:06AM 41.2200 2.5980 102° East 500 575 36,000  Level FlightAware
04:07AM 41.1990 2.7280 102° East 499 574 36,000  Level FlightAware
04:07AM 41.1830 2.8250 102° East 499 574 36,000  Level FlightAware
04:08AM 41.1650 2.9280 103° East 499 574 36,000  Level FlightAware
04:08AM 41.1460 3.0430 102° East 500 575 36,000  Level FlightAware
04:09AM 41.1290 3.1410 103° East 498 573 36,000  Level FlightAware
04:10AM 41.1100 3.2450 104° East 497 572 36,000  Level FlightAware
04:10AM 41.0920 3.3480 103° East 495 570 36,000  Level FlightAware
04:11AM 41.0690 3.4790 103° East 494 568 36,000  Level FlightAware
04:12AM 41.0540 3.5650 103° East 493 567 36,000  Level FlightAware
04:12AM 41.0270 3.7150 103° East 492 566 36,000  Level FlightAware
04:13AM 41.0070 3.8260 103° East 492 566 36,000  Level FlightAware
04:13AM 40.9890 3.9240 104° East 492 566 36,000  Level FlightAware
04:14AM 40.9700 4.0280 104° East 492 566 36,000  Level FlightAware
04:15AM 40.9490 4.1440 103° East 494 568 36,000  Level FlightAware
04:15AM 40.9300 4.2500 103° East 495 570 36,000  Level FlightAware
04:16AM 40.9110 4.3540 104° East 497 572 36,000  Level FlightAware
04:17AM 40.8910 4.4600 104° East 499 574 36,000  Level FlightAware
04:17AM 40.8650 4.5970 104° East 499 574 36,000  Level FlightAware
04:18AM 40.8480 4.7170 101° East 503 579 36,000  Level FlightAware
04:18AM 40.8410 4.8060 96° East 505 581 36,000  Level FlightAware
04:19AM 40.8330 4.9260 95° East 506 582 36,000  Level FlightAware
04:20AM 40.8270 5.0410 94° East 508 585 36,000  Level FlightAware
04:20AM 40.8230 5.1430 93° East 508 585 36,000  Level FlightAware
04:21AM 40.8160 5.2870 94° East 508 585 36,000  Level FlightAware
04:22AM 40.8110 5.4010 93° East 509 586 36,000  Level FlightAware
04:22AM 40.8050 5.5050 94° East 511 588 36,000  Level FlightAware
04:23AM 40.8010 5.6210 93° East 511 588 36,000  Level FlightAware
04:23AM 40.7930 5.7460 95° East 511 588 36,000  Level FlightAware
04:24AM 40.7860 5.8840 94° East 510 587 36,000  Level FlightAware
04:25AM 40.7810 5.9870 94° East 510 587 36,000  Level FlightAware
04:25AM 40.7750 6.0930 94° East 510 587 36,000  Level FlightAware
04:26AM 40.7690 6.2040 94° East 510 587 36,000  Level FlightAware
04:27AM 40.7630 6.3120 94° East 510 587 36,000  Level FlightAware
04:27AM 40.7560 6.4370 94° East 511 588 36,000  Level FlightAware
04:28AM 40.7490 6.5450 95° East 511 588 36,000  Level FlightAware
04:28AM 40.7430 6.6540 94° East 510 587 36,000  Level FlightAware
04:29AM 40.7360 6.7750 94° East 511 588 36,000  Level FlightAware
04:30AM 40.7300 6.8710 95° East 511 588 36,000  Level FlightAware
04:30AM 40.7230 6.9810 95° East 512 589 36,000  Level FlightAware
04:31AM 40.7160 7.0870 95° East 513 590 36,000  Level FlightAware
04:31AM 40.7090 7.2140 94° East 514 592 36,000  Level FlightAware
04:32AM 40.7020 7.3090 96° East 515 593 36,000  Level FlightAware
04:32AM 40.6950 7.4170 95° East 515 593 36,000  Level FlightAware
04:33AM 40.6870 7.5420 95° East 515 593 36,000  Level FlightAware
04:34AM 40.6810 7.6370 95° East 516 594 36,000  Level FlightAware
04:34AM 40.6770 7.7610 92° East 520 598 36,000  Level FlightAware
04:35AM 40.6840 7.8880 86° East 521 600 36,000 375 Level FlightAware
04:36AM 40.6920 8.0160 85° East 522 601 36,500 857 Climbing FlightAware
04:36AM 40.6980 8.1100 85° East 522 601 37,000 462 Climbing FlightAware
04:37AM 40.7040 8.2210 86° East 521 600 37,000  Level FlightAware
04:37AM 40.7110 8.3320 85° East 520 598 37,000  Level FlightAware
04:38AM 40.7180 8.4420 85° East 519 597 37,000  Level FlightAware
04:38AM 40.7240 8.5520 86° East 519 597 37,000  Level FlightAware
04:39AM 40.7300 8.6620 86° East 519 597 37,000  Level FlightAware
04:40AM 40.7370 8.7730 85° East 520 598 37,000  Level FlightAware
04:40AM 40.7440 8.9000 86° East 520 598 37,000  Level FlightAware
04:41AM 40.7500 9.0110 86° East 522 601 37,000  Level FlightAware
04:42AM 40.7570 9.1360 86° East 523 602 37,000  Level FlightAware
04:42AM 40.7620 9.2320 86° East 523 602 37,000  Level FlightAware
04:43AM 40.7680 9.3440 86° East 524 603 37,000  Level FlightAware
04:43AM 40.7730 9.4560 87° East 525 604 37,000  Level FlightAware
04:44AM 40.7800 9.5840 86° East 526 605 37,000  Level FlightAware
04:44AM 40.7850 9.6770 86° East 527 606 37,000  Level FlightAware
04:45AM 40.7900 9.7930 87° East 527 606 37,000  Level FlightAware
04:46AM 40.7960 9.9200 86° East 528 608 37,000  Level FlightAware
04:46AM 40.8000 10.0040 86° East 528 608 37,000  Level FlightAware
04:47AM 40.8070 10.1650 87° East 530 610 37,000  Level FlightAware
04:47AM 40.8120 10.2790 87° East 530 610 37,000  Level FlightAware
04:48AM 40.8160 10.3830 87° East 531 611 37,000  Level FlightAware
04:49AM 40.8210 10.4980 87° East 532 612 37,000  Level FlightAware
04:49AM 40.8260 10.6160 87° East 533 613 37,000  Level FlightAware
04:50AM 40.8300 10.7270 87° East 533 613 37,000  Level FlightAware
04:50AM 40.8340 10.8440 87° East 534 615 37,000  Level FlightAware
04:51AM 40.8380 10.9560 87° East 534 615 37,000  Level FlightAware
04:52AM 40.8430 11.0790 87° East 535 616 37,000  Level FlightAware
04:52AM 40.8460 11.1850 88° East 534 615 37,000  Level FlightAware
04:53AM 40.8500 11.3010 87° East 533 613 37,000  Level FlightAware
04:53AM 40.8470 11.4020 92° East 533 613 37,000  Level FlightAware
04:54AM 40.8250 11.5050 106° East 533 613 37,000  Level FlightAware
04:54AM 40.7980 11.6030 110° East 532 612 37,000  Level FlightAware
04:55AM 40.7660 11.7100 112° Southeast 533 613 37,000  Level FlightAware
04:55AM 40.7330 11.8210 111° Southeast 533 613 37,000  Level FlightAware
04:56AM 40.7010 11.9320 111° Southeast 533 613 37,000  Level FlightAware
04:57AM 40.6720 12.0290 111° Southeast 533 613 37,000  Level FlightAware
04:57AM 40.6380 12.1400 112° Southeast 534 615 37,000  Level FlightAware
04:58AM 40.6110 12.2300 112° Southeast 534 615 37,000  Level FlightAware
04:58AM 40.5730 12.3570 111° Southeast 534 615 37,000  Level FlightAware
04:59AM 40.5440 12.4490 113° Southeast 535 616 37,000  Level FlightAware
05:00AM 40.5100 12.5600 112° Southeast 535 616 37,000  Level FlightAware
05:00AM 40.4770 12.6680 112° Southeast 535 616 37,000  Level FlightAware
05:01AM 40.4470 12.7650 112° Southeast 536 617 37,000  Level FlightAware
05:01AM 40.4130 12.8720 113° Southeast 536 617 37,000  Level FlightAware
05:02AM 40.3790 12.9810 112° Southeast 536 617 37,000  Level FlightAware
05:03AM 40.3450 13.0890 112° Southeast 536 617 37,000  Level FlightAware
05:03AM 40.3140 13.1860 113° Southeast 536 617 37,000  Level FlightAware
05:04AM 40.2790 13.2960 113° Southeast 537 618 37,000  Level FlightAware
05:04AM 40.2480 13.3950 112° Southeast 538 619 37,000  Level FlightAware
05:05AM 40.2130 13.5040 113° Southeast 538 619 37,000  Level FlightAware
05:05AM 40.1760 13.6190 113° Southeast 538 619 37,000  Level FlightAware
05:06AM 40.1460 13.7130 113° Southeast 539 620 37,000  Level FlightAware
05:07AM 40.1110 13.8220 113° Southeast 540 621 37,000  Level FlightAware
05:07AM 40.0760 13.9300 113° Southeast 540 621 37,000  Level FlightAware
05:08AM 40.0410 14.0370 113° Southeast 540 621 37,000  Level FlightAware
05:08AM 40.0090 14.1350 113° Southeast 540 621 37,000  Level FlightAware
05:09AM 39.9740 14.2420 113° Southeast 540 621 37,000  Level FlightAware
05:10AM 39.9380 14.3520 113° Southeast 541 623 37,000  Level FlightAware
05:10AM 39.9070 14.4440 114° Southeast 540 621 37,000  Level FlightAware
05:11AM 39.8760 14.5370 113° Southeast 540 621 37,000  Level FlightAware
05:11AM 39.8380 14.6490 114° Southeast 540 621 37,000  Level FlightAware
05:12AM 39.8050 14.7470 114° Southeast 540 621 37,000  Level FlightAware
05:12AM 39.7670 14.8590 114° Southeast 541 623 37,000  Level FlightAware
05:13AM 39.7290 14.9720 114° Southeast 543 625 37,000  Level FlightAware
05:14AM 39.6970 15.0660 114° Southeast 543 625 37,000  Level FlightAware
05:14AM 39.6600 15.1740 114° Southeast 544 626 37,000  Level FlightAware
05:15AM 39.6250 15.2760 114° Southeast 544 626 37,000  Level FlightAware
05:15AM 39.5860 15.3900 114° Southeast 544 626 37,000  Level FlightAware
05:16AM 39.5530 15.4850 114° Southeast 545 627 37,000  Level FlightAware
05:16AM 39.5160 15.5910 114° Southeast 545 627 37,000  Level FlightAware
05:17AM 39.4840 15.7020 110° East 546 628 37,000  Level FlightAware
05:18AM 39.4590 15.8010 108° East 546 628 37,000  Level FlightAware
05:18AM 39.4300 15.9130 109° East 546 628 37,000  Level FlightAware
05:19AM 39.4000 16.0250 109° East 547 629 37,000  Level FlightAware
05:19AM 39.3710 16.1330 109° East 547 629 37,000  Level FlightAware
05:20AM 39.3430 16.2320 110° East 549 632 37,000  Level FlightAware
05:21AM 39.3120 16.3450 109° East 549 632 37,000  Level FlightAware
05:21AM 39.2780 16.4650 110° East 550 633 37,000  Level FlightAware
05:22AM 39.2510 16.5620 110° East 550 633 37,000  Level FlightAware
05:22AM 39.2190 16.6760 110° East 551 634 37,000  Level FlightAware
05:23AM 39.1880 16.7850 110° East 552 635 37,000  Level FlightAware
05:23AM 39.1590 16.8870 110° East 552 635 37,000  Level FlightAware
05:24AM 39.1290 16.9950 110° East 552 635 37,000  Level FlightAware
05:25AM 39.0970 17.1050 111° Southeast 552 635 37,000  Level FlightAware
05:25AM 39.0640 17.2220 110° East 553 636 37,000  Level FlightAware
05:26AM 39.0370 17.3190 110° East 554 638 37,000  Level FlightAware
05:26AM 39.0060 17.4320 109° East 554 638 37,000  Level FlightAware
05:27AM 38.9740 17.5450 110° East 555 639 37,000  Level FlightAware
05:28AM 38.9450 17.6470 110° East 555 639 37,000  Level FlightAware
05:28AM 38.9150 17.7540 110° East 555 639 37,000  Level FlightAware
05:29AM 38.8810 17.8730 110° East 557 641 37,000  Level FlightAware
05:29AM 38.8490 17.9850 110° East 558 642 37,000  Level FlightAware
05:30AM 38.8190 18.0920 110° East 559 643 37,000  Level FlightAware
05:30AM 38.7900 18.1950 110° East 560 644 37,000  Level FlightAware
05:31AM 38.7570 18.3080 110° East 559 643 37,000  Level FlightAware
05:32AM 38.7290 18.4080 110° East 560 644 37,000  Level FlightAware
05:32AM 38.6970 18.5180 110° East 560 644 37,000  Level FlightAware
05:33AM 38.6640 18.6310 110° East 561 646 37,000  Level FlightAware
05:33AM 38.6310 18.7450 110° East 562 647 37,000  Level FlightAware
05:34AM 38.6030 18.8390 111° Southeast 562 647 37,000  Level FlightAware
05:35AM 38.5810 18.9130 111° Southeast 562 647 37,000  Level FlightAware
05:35AM 38.5460 19.0330 110° East 563 648 37,000  Level FlightAware
05:36AM 38.5170 19.1340 110° East 563 648 37,000  Level FlightAware
05:36AM 38.4740 19.2700 112° Southeast 564 649 37,000  Level FlightAware
05:37AM 38.4440 19.3680 111° Southeast 565 650 37,000  Level FlightAware
05:38AM 38.4090 19.4850 111° Southeast 565 650 37,000  Level FlightAware
05:38AM 38.3700 19.6150 111° Southeast 566 651 37,000  Level FlightAware
05:39AM 38.3390 19.7150 112° Southeast 565 650 37,000  Level FlightAware
05:40AM 38.3010 19.8380 111° Southeast 566 651 37,000  Level FlightAware
05:40AM 38.2580 19.9770 111° Southeast 566 651 37,000  Level FlightAware
05:41AM 38.2250 20.0850 111° Southeast 565 650 37,000  Level FlightAware
05:41AM 38.1790 20.2320 112° Southeast 566 651 37,000  Level FlightAware
05:42AM 38.1440 20.3440 112° Southeast 566 651 37,000  Level FlightAware
05:43AM 38.1160 20.4350 111° Southeast 566 651 37,000  Level FlightAware
05:43AM 38.0800 20.5500 112° Southeast 566 651 37,000  Level FlightAware
05:44AM 38.0440 20.6640 112° Southeast 567 652 37,000  Level FlightAware
05:44AM 38.0150 20.7560 112° Southeast 544 626 37,000  Level FlightAware
05:45AM 37.9740 20.8870 112° Southeast 567 652 37,000  Level FlightAware
05:46AM 37.9580 20.9370 112° Southeast 567 652 37,000  Level FlightAware
05:46AM 37.9050 21.1050 112° Southeast 569 655 37,000  Level FlightAware
05:47AM 37.8740 21.2010 112° Southeast 570 656 37,000  Level FlightAware
05:47AM 37.8380 21.3150 112° Southeast 570 656 37,000  Level FlightAware
05:48AM 37.7950 21.4480 112° Southeast 570 656 37,000  Level FlightAware
05:49AM 37.7620 21.5500 112° Southeast 571 657 37,000  Level FlightAware
05:49AM 37.7210 21.6770 112° Southeast 571 657 37,000  Level FlightAware
05:50AM 37.6820 21.7990 112° Southeast 572 658 37,000  Level FlightAware
05:50AM 37.6470 21.9060 112° Southeast 573 659 37,000  Level FlightAware
05:51AM 37.6140 22.0040 113° Southeast 573 659 37,000  Level FlightAware
05:52AM 37.5770 22.1170 112° Southeast 573 659 37,000  Level FlightAware
05:52AM 37.5400 22.2310 112° Southeast 574 661 37,000  Level FlightAware
05:53AM 37.5040 22.3390 113° Southeast 574 661 37,000  Level FlightAware
05:53AM 37.4720 22.4370 112° Southeast 575 662 37,000  Level FlightAware
05:54AM 37.4340 22.5530 112° Southeast 577 664 37,000  Level FlightAware
05:54AM 37.4000 22.6530 113° Southeast 577 664 37,000  Level FlightAware
05:55AM 37.3600 22.7740 113° Southeast 576 663 37,000  Level FlightAware
05:56AM 37.3290 22.8660 113° Southeast 576 663 37,000  Level FlightAware
05:56AM 37.2900 22.9820 113° Southeast 577 664 37,000  Level FlightAware
05:57AM 37.2520 23.0960 113° Southeast 578 665 37,000  Level FlightAware
05:57AM 37.2160 23.2020 113° Southeast 578 665 37,000  Level FlightAware
05:58AM 37.1810 23.3030 113° Southeast 579 666 37,000  Level FlightAware
05:59AM 37.1420 23.4150 114° Southeast 579 666 37,000  Level FlightAware
05:59AM 37.1070 23.5150 114° Southeast 578 665 37,000  Level FlightAware
06:00AM 37.0670 23.6270 114° Southeast 578 665 37,000  Level FlightAware
06:00AM 37.0270 23.7410 114° Southeast 579 666 37,000  Level FlightAware
06:01AM 36.9910 23.8410 114° Southeast 579 666 37,000  Level FlightAware
06:02AM 36.9520 23.9530 114° Southeast 582 670 37,000  Level FlightAware
06:02AM 36.9140 24.0590 114° Southeast 582 670 37,000  Level FlightAware
06:03AM 36.8780 24.1610 114° Southeast 583 671 37,000  Level FlightAware
06:03AM 36.8380 24.2740 114° Southeast 582 670 37,000  Level FlightAware
06:04AM 36.8000 24.3810 114° Southeast 582 670 37,000  Level FlightAware
06:04AM 36.7610 24.4920 114° Southeast 581 669 37,000  Level FlightAware
06:05AM 36.7280 24.5830 114° Southeast 580 667 37,000  Level FlightAware
06:06AM 36.6870 24.6990 114° Southeast 580 667 37,000  Level FlightAware
06:06AM 36.6490 24.8060 114° Southeast 580 667 37,000  Level FlightAware
06:07AM 36.6110 24.9100 114° Southeast 578 665 37,000  Level FlightAware
06:07AM 36.5740 25.0140 114° Southeast 576 663 37,000  Level FlightAware
06:08AM 36.5380 25.1110 115° Southeast 576 663 37,000  Level FlightAware
06:09AM 36.4950 25.2310 114° Southeast 577 664 37,000  Level FlightAware
06:09AM 36.4550 25.3410 114° Southeast 578 665 37,000  Level FlightAware
06:10AM 36.4160 25.4440 115° Southeast 578 665 37,000  Level FlightAware
06:10AM 36.3850 25.5280 115° Southeast 578 665 37,000  Level FlightAware
06:11AM 36.3380 25.6530 115° Southeast 579 666 37,000  Level FlightAware
06:12AM 36.2960 25.7670 115° Southeast 578 665 37,000  Level FlightAware
06:12AM 36.2520 25.8830 115° Southeast 579 666 37,000  Level FlightAware
06:13AM 36.2120 25.9880 115° Southeast 579 666 37,000  Level FlightAware
06:13AM 36.1680 26.1040 115° Southeast 580 667 37,000  Level FlightAware
06:14AM 36.1310 26.2010 115° Southeast 580 667 37,000  Level FlightAware
06:14AM 36.0900 26.3100 115° Southeast 580 667 37,000  Level FlightAware
06:15AM 36.0490 26.4140 116° Southeast 581 669 37,000  Level FlightAware
06:16AM 36.0120 26.5120 115° Southeast 581 669 37,000  Level FlightAware
06:16AM 35.9720 26.6160 115° Southeast 582 670 37,000  Level FlightAware
06:17AM 35.9280 26.7290 116° Southeast 582 670 37,000  Level FlightAware
06:17AM 35.8860 26.8370 116° Southeast 583 671 37,000  Level FlightAware
06:18AM 35.8510 26.9260 116° Southeast 583 671 37,000  Level FlightAware
06:19AM 35.7990 27.0590 116° Southeast 582 670 37,000  Level FlightAware
06:19AM 35.7450 27.1930 116° Southeast 582 670 37,000  Level FlightAware
06:20AM 35.7050 27.2930 116° Southeast 583 671 37,000  Level FlightAware
06:21AM 35.6660 27.3920 116° Southeast 583 671 37,000  Level FlightAware
06:21AM 35.6220 27.5020 116° Southeast 582 670 37,000  Level FlightAware
06:22AM 35.5820 27.6020 116° Southeast 580 667 37,000  Level FlightAware
06:22AM 35.5410 27.7020 117° Southeast 580 667 37,000  Level FlightAware
06:23AM 35.4980 27.8100 116° Southeast 581 669 37,000  Level FlightAware
06:23AM 35.4530 27.9190 117° Southeast 582 670 37,000  Level FlightAware
06:24AM 35.4140 28.0140 117° Southeast 580 667 37,000  Level FlightAware
06:25AM 35.3710 28.1210 116° Southeast 579 666 37,000  Level FlightAware
06:25AM 35.3320 28.2170 116° Southeast 578 665 37,000  Level FlightAware
06:26AM 35.2930 28.3140 116° Southeast 578 665 37,000  Level FlightAware
06:26AM 35.2470 28.4230 117° Southeast 578 665 37,000  Level FlightAware
06:27AM 35.2030 28.5280 117° Southeast 577 664 37,000  Level FlightAware
06:27AM 35.1660 28.6170 117° Southeast 576 663 37,000  Level FlightAware
06:28AM 35.1190 28.7290 117° Southeast 576 663 37,000  Level FlightAware
06:29AM 35.0770 28.8290 117° Southeast 576 663 37,000  Level FlightAware
06:29AM 35.0390 28.9200 117° Southeast 572 658 37,000  Level FlightAware
06:30AM 34.9910 29.0340 117° Southeast 575 662 37,000  Level FlightAware
06:30AM 34.9570 29.1130 118° Southeast 571 657 37,000  Level FlightAware
06:31AM 34.9050 29.2340 118° Southeast 577 664 37,000  Level FlightAware
06:32AM 34.8620 29.3360 117° Southeast 575 662 37,000  Level FlightAware
06:32AM 34.8250 29.4230 117° Southeast 576 663 37,000  Level FlightAware
06:33AM 34.7870 29.5130 117° Southeast 581 669 37,000  Level FlightAware
06:33AM 34.7410 29.6230 117° Southeast 579 666 37,000  Level FlightAware
06:34AM 34.6890 29.7430 118° Southeast 579 666 37,000  Level FlightAware
06:34AM 34.6500 29.8330 118° Southeast 583 671 37,000  Level FlightAware
06:35AM 34.6080 29.9320 117° Southeast 582 670 37,000  Level FlightAware
06:36AM 34.5610 30.0380 118° Southeast 678 780 37,000  Level FlightAware
06:37AM 34.4800 30.2050 120° Southeast 578 665 37,000  Level FlightAware
06:37AM 34.4390 30.2890 121° Southeast 580 667 37,000  Level FlightAware
06:38AM 34.3910 30.3870 121° Southeast 580 667 37,000  Level FlightAware
06:38AM 34.3400 30.4900 121° Southeast 579 666 37,000  Level FlightAware
06:39AM 34.2910 30.5910 120° Southeast 576 663 37,000  Level FlightAware
06:40AM 34.2420 30.6900 121° Southeast 575 662 37,000  Level FlightAware
06:40AM 34.1960 30.7840 121° Southeast 578 665 37,000  Level FlightAware
06:41AM 34.1460 30.8850 121° Southeast 572 658 37,000  Level FlightAware
06:41AM 34.0880 31.0020 121° Southeast 575 662 37,000  Level FlightAware
06:42AM 34.0450 31.0900 121° Southeast 570 656 37,000  Level FlightAware
06:43AM 34.0010 31.1770 121° Southeast 571 657 37,000  Level FlightAware
06:43AM 33.9470 31.2860 121° Southeast 568 654 37,000  Level FlightAware
06:44AM 33.9010 31.3790 121° Southeast 565 650 37,000  Level FlightAware
06:44AM 33.8550 31.4710 121° Southeast 560 644 37,000  Level FlightAware
06:45AM 33.8010 31.5790 121° Southeast 556 640 37,000  Level FlightAware
06:45AM 33.7610 31.6590 121° Southeast 549 632 37,000  Level FlightAware
06:46AM 33.7150 31.7510 121° Southeast 547 629 37,000  Level FlightAware
06:47AM 33.6670 31.8460 121° Southeast 547 629 37,000  Level FlightAware
06:47AM 33.6240 31.9310 121° Southeast 547 629 37,000  Level FlightAware
06:48AM 33.5740 32.0300 121° Southeast 545 627 37,000  Level FlightAware
06:49AM 33.5210 32.1350 121° Southeast 544 626 37,000  Level FlightAware
06:49AM 33.4740 32.2270 121° Southeast 543 625 37,000 -86 Level FlightAware
06:50AM 33.4300 32.3120 122° Southeast 539 620 36,900 -930 Descending FlightAware
06:50AM 33.3810 32.4090 121° Southeast 544 626 35,900 -1,690 Descending FlightAware
06:51AM 33.3370 32.4940 122° Southeast 555 639 34,900 -1,629 Descending FlightAware
06:51AM 33.2870 32.5910 122° Southeast 558 642 34,000 -1,457 Descending FlightAware
06:52AM 33.2440 32.6760 121° Southeast 557 641 33,200 -1,455 Descending FlightAware
06:53AM 33.1970 32.7660 122° Southeast 557 641 32,400 -1,543 Descending FlightAware
06:53AM 33.1430 32.8720 121° Southeast 558 642 31,400 -1,541 Descending FlightAware
06:54AM 33.0970 32.9600 122° Southeast 559 643 30,500 -1,521 Descending FlightAware
06:54AM 33.0470 33.0580 121° Southeast 558 642 29,600 -1,944 Descending FlightAware
06:55AM 33.0000 33.1480 122° Southeast 549 632 28,200 -2,417 Descending FlightAware
06:56AM 32.9540 33.2380 121° Southeast 532 612 26,700 -2,328 Descending FlightAware
06:56AM 32.9150 33.3120 122° Southeast 519 597 25,600 -2,294 Descending FlightAware
06:57AM 32.8660 33.4060 122° Southeast 502 578 24,100 -2,435 Descending FlightAware
06:57AM 32.8280 33.4790 122° Southeast 487 560 22,800 -2,366 Descending FlightAware
06:58AM 32.7810 33.5690 122° Southeast 471 542 21,300 -2,240 Descending FlightAware
06:58AM 32.7420 33.6420 122° Southeast 459 528 20,000 -2,029 Descending FlightAware
06:59AM 32.7050 33.7140 121° Southeast 441 507 19,000 -1,800 Descending FlightAware
07:00AM 32.6660 33.7880 122° Southeast 425 489 17,900 -2,314 Descending FlightAware
07:00AM 32.6330 33.8520 121° Southeast 407 468 16,300 -2,400 Descending FlightAware
07:01AM 32.5970 33.9210 122° Southeast 384 442 15,100 -1,973 Descending FlightAware
07:01AM 32.5640 33.9830 122° Southeast 379 436 13,900 -1,941 Descending FlightAware
07:02AM 32.5340 34.0410 122° Southeast 372 428 12,900 -1,765 Descending FlightAware
07:03AM 32.5020 34.1020 122° Southeast 366 421 11,900 -1,750 Descending FlightAware
07:03AM 32.4670 34.1610 125° Southeast 351 404 10,800 -1,250 Descending FlightAware
07:04AM 32.4290 34.2080 134° Southeast 324 373 10,400 -618 Descending FlightAware
07:04AM 32.3970 34.2460 135° Southeast 297 342 10,100 -577 Descending FlightAware
07:05AM 32.3780 34.2690 134° Southeast 287 330 9,900 -1,091 Descending FlightAware
07:05AM 32.3550 34.2950 136° Southeast 285 328 9,300 -1,500 Descending FlightAware
07:05AM 32.3360 34.3180 134° Southeast 281 323 8,800 -1,313 Descending FlightAware
07:06AM 32.3250 34.3310 135° Southeast 280 322 8,600 -1,125 Descending FlightAware
07:06AM 32.2940 34.3670 136° Southeast 277 319 7,900 -1,286 Descending FlightAware
07:06AM 32.2760 34.3880 135° Southeast 274 315 7,400 -1,350 Descending FlightAware
07:07AM 32.2590 34.4090 134° Southeast 272 313 7,000 -1,333 Descending FlightAware
07:07AM 32.2360 34.4360 135° Southeast 272 313 6,400 -1,200 Descending FlightAware
07:08AM 32.2210 34.4590 128° Southeast 282 325 6,100 -686 Descending FlightAware
07:08AM 32.2100 34.4810 121° Southeast 286 329 6,000  Descending FlightAware
07:08AM 32.1910 34.5180 121° Southeast 286 329 6,100 109 Climbing FlightAware
07:09AM 32.1750 34.5520 119° Southeast 283 326 6,100  Level FlightAware
07:09AM 32.1650 34.5720 121° Southeast 284 327 6,100 -293 Level FlightAware
07:09AM 32.1460 34.6070 123° Southeast 275 316 5,900 -933 Descending FlightAware
07:10AM 32.1340 34.6320 120° Southeast 275 316 5,400 -840 Descending FlightAware
07:10AM 32.1150 34.6700 121° Southeast 275 316 5,200 -840 Descending FlightAware
07:11AM 32.1290 34.6410 300° West 254 292 4,700 -682 Descending FlightAware
07:11AM 32.1160 34.6670 121° Southeast 254 292 4,700 -86 Level FlightAware
07:12AM 32.1290 34.6410 301° West 247 284 4,600 -85 Descending FlightAware
07:12AM 32.0470 34.8010 121° Southeast 237 273 4,600  Level FlightAware
07:13AM 32.0340 34.8270 121° Southeast 236 272 4,600  Level FlightAware
07:13AM 32.0230 34.8500 119° Southeast 240 276 4,600  Level FlightAware
07:13AM 32.0210 34.8640 100° East 247 284 4,600  Level FlightAware
07:13AM 32.0190 34.8920 95° East 247 284 4,600  Level FlightAware
07:14AM 32.0320 34.9010 30° Northeast 235 270 4,600  Level FlightAware
07:14AM 32.0450 34.9310 63° Northeast 235 270 4,600  Level FlightAware
07:15AM 32.0700 34.9870 62° Northeast 239 275 4,600 -305 Level FlightAware
07:15AM 32.0800 35.0110 64° Northeast 229 264 4,300 -750 Descending FlightAware
07:15AM 32.0890 35.0310 62° Northeast 224 258 4,100 -840 Descending FlightAware
07:16AM 32.0980 35.0640 72° East 206 237 3,600 -1,080 Descending FlightAware
07:16AM 32.0910 35.0800 117° Southeast 194 223 3,200 -490 Descending FlightAware
07:17AM 32.0760 35.1000 132° Southeast 194 223 3,200 -450 Level FlightAware
07:18AM 32.0520 35.0350 246° West 2,800 -593 Descending FlightAware
07:18AM 32.0510 35.0250 263° West 2,600 -857 Descending FlightAware
07:18AM 32.0460 35.0040 254° West 155 178 2,300 -800 Descending FlightAware
07:19AM 32.0440 34.9900 260° West 146 168 2,000 -750 Descending FlightAware
07:19AM 32.0420 34.9730 262° West 141 162 1,800 -750 Descending FlightAware
07:19AM 32.0390 34.9570 258° West 140 161 1,500 -750 Descending FlightAware
07:20AM 32.0380 34.9430 265° West 142 163 1,300 -750 Descending FlightAware
07:20AM 32.0350 34.9270 258° West 137 158 1,000 -800 Descending FlightAware
07:20AM 32.0330 34.9110 262° West 139 160 700 -686 Descending FlightAware
07:21AM 32.0320 34.9010 263° West 140 161 600 -158 Descending FlightAware
07:21AM 32.0300 34.8830 263° West 140 161 600  Level FlightAware